Time;durP1;ratioP1;P1;durP2;ratioP2;P2;SDS_P1;SDS_P2;PMS_P1;PMS_P2;Temp;Humidity;BMP_temperature;BMP_pressure;BME280_temperature;BME280_humidity;BME280_pressure;Samples;Min_cycle;Max_cycle;Signal;HPM_P1;HPM_P2
2023/09/07 00:05:00;;;;;;;13.25;7.78;;;;;;;;;;4965006;28;20029;-89
2023/09/07 00:07:26;;;;;;;11.65;7.32;;;;;;;;;;4978658;28;20078;-88
2023/09/07 00:09:52;;;;;;;12.50;8.02;;;;;;;;;;4979452;28;20031;-89
2023/09/07 00:12:18;;;;;;;14.70;7.45;;;;;;;;;;4978519;28;20069;-88
2023/09/07 00:14:45;;;;;;;10.48;7.38;;;;;;;;;;4975597;28;20038;-88
2023/09/07 00:20:15;;;;;;;11.88;7.63;;;;;;;;;;4960195;29;20038;-89
2023/09/07 00:22:41;;;;;;;16.20;7.93;;;;;;;;;;4960109;28;20031;-89
2023/09/07 00:25:07;;;;;;;13.63;8.10;;;;;;;;;;4959226;28;20027;-87
2023/09/07 00:27:34;;;;;;;13.05;8.55;;;;;;;;;;4959012;29;20130;-87
2023/09/07 00:30:00;;;;;;;11.57;8.20;;;;;;;;;;4958870;29;20024;-88
2023/09/07 00:35:30;;;;;;;11.82;7.80;;;;;;;;;;4967920;28;20068;-88
2023/09/07 00:37:56;;;;;;;13.63;8.05;;;;;;;;;;4978916;28;20031;-88
2023/09/07 00:40:26;;;;;;;13.30;8.40;;;;;;;;;;4977203;28;20042;-88
2023/09/07 00:42:52;;;;;;;15.15;8.65;;;;;;;;;;4977606;28;20042;-87
2023/09/07 00:45:18;;;;;;;11.38;8.90;;;;;;;;;;4972416;28;20074;-88
2023/09/07 00:50:48;;;;;;;14.02;8.13;;;;;;;;;;4959840;28;20037;-89
2023/09/07 00:53:14;;;;;;;12.10;7.75;;;;;;;;;;4958473;29;20035;-90
2023/09/07 00:55:40;;;;;;;14.45;8.05;;;;;;;;;;4967487;28;20042;-90
2023/09/07 00:58:06;;;;;;;13.57;7.70;;;;;;;;;;4977917;28;20035;-89
2023/09/07 01:00:33;;;;;;;20.88;8.85;;;;;;;;;;4979010;28;20057;-90
2023/09/07 01:02:59;;;;;;;11.05;7.53;;;;;;;;;;4978730;28;20051;-90
2023/09/07 01:05:33;;;;;;;10.02;7.63;;;;;;;;;;4971917;28;20023;-90
2023/09/07 01:08:04;;;;;;;10.88;7.28;;;;;;;;;;4958719;29;20035;-89
2023/09/07 01:10:30;;;;;;;10.80;7.97;;;;;;;;;;4958542;29;20448;-90
2023/09/07 01:12:56;;;;;;;11.27;7.60;;;;;;;;;;4958405;29;20496;-89
2023/09/07 01:15:22;;;;;;;13.77;7.57;;;;;;;;;;4965330;28;20472;-89
2023/09/07 01:18:11;;;;;;;9.85;7.35;;;;;;;;;;4977623;28;20042;-90
2023/09/07 01:20:38;;;;;;;10.50;7.38;;;;;;;;;;4977502;28;20078;-89
2023/09/07 01:23:04;;;;;;;11.57;8.10;;;;;;;;;;4977660;28;20043;-89
2023/09/07 01:25:32;;;;;;;9.18;8.13;;;;;;;;;;4971460;28;20027;-89
2023/09/07 01:27:58;;;;;;;12.00;8.25;;;;;;;;;;4958368;29;20055;-90
2023/09/07 01:30:27;;;;;;;10.15;8.20;;;;;;;;;;4959181;28;20027;-90
2023/09/07 01:35:57;;;;;;;14.30;8.45;;;;;;;;;;4959638;28;20122;-91
2023/09/07 01:38:23;;;;;;;16.92;8.27;;;;;;;;;;4958344;29;20106;-91
2023/09/07 01:40:49;;;;;;;13.25;9.20;;;;;;;;;;4959016;28;20480;-91
2023/09/07 01:43:15;;;;;;;14.75;8.82;;;;;;;;;;4973058;28;20027;-91
2023/09/07 01:45:41;;;;;;;14.38;8.88;;;;;;;;;;4978370;28;20044;-91
2023/09/07 01:48:12;;;;;;;12.18;7.80;;;;;;;;;;4978660;28;20031;-89
2023/09/07 01:50:38;;;;;;;13.43;7.63;;;;;;;;;;4978603;28;20033;-90
2023/09/07 01:53:04;;;;;;;16.75;8.18;;;;;;;;;;4979786;28;20385;-90
2023/09/07 01:55:31;;;;;;;14.90;8.45;;;;;;;;;;4981776;28;20039;-90
2023/09/07 01:57:57;;;;;;;15.73;8.65;;;;;;;;;;4980837;28;20301;-90
2023/09/07 02:00:23;;;;;;;13.80;8.70;;;;;;;;;;4981827;28;20035;-90
2023/09/07 02:08:57;;;;;;;15.00;9.38;;;;;;;;;;4982111;28;20034;-89
2023/09/07 02:11:23;;;;;;;15.27;8.57;;;;;;;;;;4981813;28;20033;-89
2023/09/07 02:13:49;;;;;;;13.25;8.55;;;;;;;;;;4981529;28;20023;-89
2023/09/07 02:19:19;;;;;;;12.10;8.43;;;;;;;;;;4961205;29;20042;-88
2023/09/07 02:21:45;;;;;;;11.65;7.88;;;;;;;;;;4972063;28;20015;-88
2023/09/07 02:24:11;;;;;;;10.98;8.50;;;;;;;;;;4980465;28;20031;-87
2023/09/07 02:26:43;;;;;;;13.32;8.38;;;;;;;;;;4981538;28;20023;-89
2023/09/07 02:29:09;;;;;;;13.93;8.15;;;;;;;;;;4981716;28;20412;-89
2023/09/07 02:34:39;;;;;;;9.70;7.75;;;;;;;;;;4962131;29;20041;-89
2023/09/07 02:37:05;;;;;;;11.98;7.95;;;;;;;;;;4961732;29;20114;-90
2023/09/07 02:39:31;;;;;;;11.23;7.68;;;;;;;;;;4978337;28;20074;-90
2023/09/07 02:41:57;;;;;;;10.13;7.40;;;;;;;;;;4979783;28;20035;-90
2023/09/07 02:44:23;;;;;;;9.00;7.53;;;;;;;;;;4980242;28;20019;-90
2023/09/07 02:46:49;;;;;;;12.32;7.82;;;;;;;;;;4981176;28;20042;-90
2023/09/07 02:49:15;;;;;;;11.45;7.35;;;;;;;;;;4981045;28;20436;-89
2023/09/07 02:51:41;;;;;;;23.02;8.48;;;;;;;;;;4979936;28;20035;-89
2023/09/07 02:54:07;;;;;;;9.38;7.00;;;;;;;;;;4980686;28;20058;-90
2023/09/07 02:56:33;;;;;;;10.18;7.95;;;;;;;;;;4981220;28;20026;-89
2023/09/07 02:59:00;;;;;;;12.55;8.32;;;;;;;;;;4979858;28;20035;-90
2023/09/07 03:01:26;;;;;;;12.07;7.53;;;;;;;;;;4980459;28;20050;-90
2023/09/07 03:03:52;;;;;;;9.00;7.78;;;;;;;;;;4980141;28;20022;-89
2023/09/07 03:06:18;;;;;;;26.70;8.38;;;;;;;;;;4979155;28;20078;-89
2023/09/07 03:08:44;;;;;;;11.90;7.20;;;;;;;;;;4961321;28;20402;-90
2023/09/07 03:11:11;;;;;;;12.23;7.82;;;;;;;;;;4961672;28;20027;-90
2023/09/07 03:13:37;;;;;;;11.65;7.60;;;;;;;;;;4961390;28;20024;-90
2023/09/07 03:16:04;;;;;;;13.20;7.63;;;;;;;;;;4961448;28;20114;-90
2023/09/07 03:18:30;;;;;;;10.73;7.75;;;;;;;;;;4961360;28;20027;-90
2023/09/07 03:20:58;;;;;;;9.43;7.32;;;;;;;;;;4960643;28;20035;-88
2023/09/07 03:23:24;;;;;;;10.98;7.50;;;;;;;;;;4977500;28;20066;-89
2023/09/07 03:25:50;;;;;;;14.10;7.68;;;;;;;;;;4960328;28;20039;-88
2023/09/07 03:28:16;;;;;;;8.48;6.72;;;;;;;;;;4941150;29;20406;-89
2023/09/07 03:30:44;;;;;;;11.85;7.95;;;;;;;;;;4952171;29;20027;-89
2023/09/07 03:36:26;;;;;;;12.10;6.97;;;;;;;;;;4960893;29;20118;-91
2023/09/07 03:38:52;;;;;;;12.27;7.25;;;;;;;;;;4950237;28;20036;-89
2023/09/07 03:41:18;;;;;;;10.77;7.45;;;;;;;;;;4951269;29;20024;-90
2023/09/07 03:43:45;;;;;;;9.77;7.13;;;;;;;;;;4979295;28;20050;-89
2023/09/07 03:46:11;;;;;;;13.68;8.50;;;;;;;;;;4978972;28;20030;-89
2023/09/07 03:48:37;;;;;;;11.45;7.15;;;;;;;;;;4979776;28;20018;-89
2023/09/07 03:51:06;;;;;;;11.52;7.70;;;;;;;;;;4980031;28;20416;-88
2023/09/07 03:53:32;;;;;;;11.30;6.90;;;;;;;;;;4979382;28;20042;-89
2023/09/07 03:55:58;;;;;;;10.10;6.65;;;;;;;;;;4980182;28;20027;-89
2023/09/07 03:58:24;;;;;;;13.27;6.75;;;;;;;;;;4979571;28;20030;-89
2023/09/07 04:00:50;;;;;;;13.15;7.07;;;;;;;;;;4979336;28;20045;-89
2023/09/07 04:06:33;;;;;;;14.82;7.25;;;;;;;;;;4979852;28;20033;-88
2023/09/07 04:08:59;;;;;;;10.20;7.57;;;;;;;;;;4978289;28;20026;-89
2023/09/07 04:11:26;;;;;;;9.18;7.10;;;;;;;;;;4978494;28;20031;-89
2023/09/07 04:13:52;;;;;;;10.98;6.93;;;;;;;;;;4979815;28;20027;-89
2023/09/07 04:16:21;;;;;;;9.15;7.22;;;;;;;;;;4977657;28;20057;-89
2023/09/07 04:18:47;;;;;;;13.05;8.02;;;;;;;;;;4977989;28;20122;-89
2023/09/07 04:21:13;;;;;;;12.52;7.55;;;;;;;;;;4979520;28;20058;-88
2023/09/07 04:23:40;;;;;;;10.48;8.15;;;;;;;;;;4979035;28;20034;-89
2023/09/07 04:26:09;;;;;;;16.10;8.45;;;;;;;;;;4979489;28;20102;-89
2023/09/07 04:28:35;;;;;;;11.90;7.68;;;;;;;;;;4979146;28;20022;-89
2023/09/07 04:31:02;;;;;;;13.35;7.75;;;;;;;;;;4978233;28;20084;-89
2023/09/07 04:33:30;;;;;;;10.95;7.43;;;;;;;;;;4978175;28;20034;-89
2023/09/07 04:35:56;;;;;;;10.98;8.20;;;;;;;;;;4977966;28;20121;-89
2023/09/07 04:38:23;;;;;;;14.25;8.65;;;;;;;;;;4977945;28;20035;-88
2023/09/07 04:40:49;;;;;;;15.45;8.43;;;;;;;;;;4978771;28;20320;-88
2023/09/07 04:43:15;;;;;;;13.93;9.02;;;;;;;;;;4978025;28;20401;-90
2023/09/07 04:45:47;;;;;;;13.18;9.25;;;;;;;;;;4979144;28;20175;-88
2023/09/07 04:48:32;;;;;;;13.27;8.35;;;;;;;;;;4978777;28;20019;-88
2023/09/07 04:51:03;;;;;;;18.67;9.20;;;;;;;;;;4978674;28;20034;-89
2023/09/07 04:53:29;;;;;;;15.60;9.63;;;;;;;;;;4977881;28;20181;-89
2023/09/07 04:55:55;;;;;;;13.40;9.07;;;;;;;;;;4977918;28;20058;-90
2023/09/07 04:58:21;;;;;;;14.13;9.45;;;;;;;;;;4978883;28;20066;-89
2023/09/07 05:00:47;;;;;;;12.55;9.13;;;;;;;;;;4978884;28;20046;-91
2023/09/07 05:03:13;;;;;;;14.70;9.48;;;;;;;;;;4979165;28;20027;-90
2023/09/07 05:05:40;;;;;;;11.45;7.97;;;;;;;;;;4978800;28;20069;-91
2023/09/07 05:08:06;;;;;;;12.07;8.73;;;;;;;;;;4977878;28;20031;-91
2023/09/07 05:10:35;;;;;;;13.02;8.32;;;;;;;;;;4978676;28;20031;-91
2023/09/07 05:13:01;;;;;;;11.02;8.80;;;;;;;;;;4978628;28;20047;-88
2023/09/07 05:15:27;;;;;;;15.52;8.90;;;;;;;;;;4978828;28;20027;-88
2023/09/07 05:17:53;;;;;;;13.07;8.60;;;;;;;;;;4977789;28;20065;-88
2023/09/07 05:20:19;;;;;;;14.57;8.63;;;;;;;;;;4959703;28;20028;-89
2023/09/07 05:22:45;;;;;;;10.15;7.97;;;;;;;;;;4959304;28;20119;-89
2023/09/07 05:25:12;;;;;;;9.02;8.13;;;;;;;;;;4959499;28;20067;-89
2023/09/07 05:27:38;;;;;;;13.63;9.23;;;;;;;;;;4961393;28;20028;-89
2023/09/07 05:30:05;;;;;;;12.93;8.18;;;;;;;;;;4978930;28;20042;-90
2023/09/07 05:32:31;;;;;;;12.88;8.82;;;;;;;;;;4981556;28;20131;-90
2023/09/07 05:34:57;;;;;;;13.27;9.00;;;;;;;;;;4982329;28;20031;-89
2023/09/07 05:37:23;;;;;;;11.18;8.65;;;;;;;;;;4979088;28;20408;-89
2023/09/07 05:39:49;;;;;;;15.65;8.60;;;;;;;;;;4963143;28;20049;-89
2023/09/07 05:42:15;;;;;;;13.57;8.95;;;;;;;;;;4963146;28;20023;-89
2023/09/07 05:44:41;;;;;;;11.65;8.82;;;;;;;;;;4963060;28;20350;-89
2023/09/07 05:47:07;;;;;;;15.77;8.30;;;;;;;;;;4961946;29;20091;-89
2023/09/07 05:49:33;;;;;;;11.90;8.63;;;;;;;;;;4980775;28;20034;-89
2023/09/07 05:52:00;;;;;;;14.15;8.93;;;;;;;;;;4982342;28;20031;-89
2023/09/07 05:54:26;;;;;;;13.35;8.50;;;;;;;;;;4981725;28;20054;-88
2023/09/07 05:56:52;;;;;;;15.02;8.15;;;;;;;;;;4982335;28;20034;-89
2023/09/07 05:59:18;;;;;;;11.70;8.05;;;;;;;;;;4981364;28;20071;-89
2023/09/07 06:01:44;;;;;;;10.20;8.20;;;;;;;;;;4981964;28;20026;-89
2023/09/07 06:04:10;;;;;;;11.60;8.40;;;;;;;;;;4981911;28;20050;-88
2023/09/07 06:06:37;;;;;;;13.30;8.27;;;;;;;;;;4980907;28;20027;-89
2023/09/07 06:09:03;;;;;;;11.18;8.13;;;;;;;;;;4967307;28;20035;-89
2023/09/07 06:11:31;;;;;;;11.50;8.38;;;;;;;;;;4962286;28;20034;-90
2023/09/07 06:13:57;;;;;;;15.85;8.88;;;;;;;;;;4965283;28;20027;-89
2023/09/07 06:16:24;;;;;;;13.95;8.18;;;;;;;;;;4974746;28;20421;-88
2023/09/07 06:18:50;;;;;;;11.30;8.60;;;;;;;;;;4960955;28;20027;-87
2023/09/07 06:21:16;;;;;;;12.10;8.45;;;;;;;;;;4962239;28;20239;-87
2023/09/07 06:23:43;;;;;;;12.15;7.20;;;;;;;;;;4962135;28;20023;-88
2023/09/07 06:26:09;;;;;;;10.57;7.93;;;;;;;;;;4961510;28;20066;-91
2023/09/07 06:28:35;;;;;;;11.32;7.93;;;;;;;;;;4961434;28;20034;-91
2023/09/07 06:31:01;;;;;;;13.38;7.85;;;;;;;;;;4962654;28;20082;-88
2023/09/07 06:33:46;;;;;;;13.00;9.65;;;;;;;;;;4961140;28;20330;-92
2023/09/07 06:36:12;;;;;;;13.05;7.93;;;;;;;;;;4966483;28;20031;-91
2023/09/07 06:38:38;;;;;;;19.10;8.20;;;;;;;;;;4974469;28;20429;-93
2023/09/07 06:41:04;;;;;;;17.60;8.32;;;;;;;;;;4974237;28;20034;-81
2023/09/07 06:43:32;;;;;;;10.00;6.75;;;;;;;;;;4976728;28;20031;-81
2023/09/07 06:46:03;;;;;;;12.52;7.55;;;;;;;;;;4968369;28;20042;-81
2023/09/07 06:48:29;;;;;;;14.02;7.72;;;;;;;;;;4960884;28;20401;-81
2023/09/07 06:50:55;;;;;;;9.43;7.32;;;;;;;;;;4977341;28;20031;-81
2023/09/07 06:53:21;;;;;;;12.35;6.68;;;;;;;;;;4968387;28;20440;-81
2023/09/07 06:55:47;;;;;;;9.40;6.90;;;;;;;;;;4978686;28;20047;-81
2023/09/07 06:58:13;;;;;;;9.55;7.30;;;;;;;;;;4980192;28;20498;-81
2023/09/07 07:00:39;;;;;;;10.02;6.57;;;;;;;;;;4980112;28;20143;-81
2023/09/07 07:03:05;;;;;;;11.85;6.65;;;;;;;;;;4979186;28;20114;-81
2023/09/07 07:05:33;;;;;;;13.40;6.05;;;;;;;;;;4979863;28;20023;-80
2023/09/07 07:07:59;;;;;;;10.73;5.60;;;;;;;;;;4980011;28;20038;-80
2023/09/07 07:10:25;;;;;;;7.55;5.05;;;;;;;;;;4979957;28;20027;-81
2023/09/07 07:12:52;;;;;;;15.25;5.80;;;;;;;;;;4979071;28;20105;-81
2023/09/07 07:15:18;;;;;;;8.63;5.20;;;;;;;;;;4978960;28;20125;-81
2023/09/07 07:17:44;;;;;;;10.23;5.07;;;;;;;;;;4979876;28;20410;-81
2023/09/07 07:20:11;;;;;;;7.85;4.85;;;;;;;;;;4979793;28;20317;-80
2023/09/07 07:22:37;;;;;;;6.75;4.60;;;;;;;;;;4979815;28;20105;-81
2023/09/07 07:25:06;;;;;;;9.48;5.03;;;;;;;;;;4978472;28;20426;-81
2023/09/07 07:27:32;;;;;;;8.07;4.53;;;;;;;;;;4979874;28;20034;-81
2023/09/07 07:29:58;;;;;;;11.93;4.80;;;;;;;;;;4979800;28;20079;-80
2023/09/07 07:32:24;;;;;;;8.02;4.90;;;;;;;;;;4979570;28;20037;-81
2023/09/07 07:34:50;;;;;;;7.47;4.63;;;;;;;;;;4979556;28;20413;-81
2023/09/07 07:37:16;;;;;;;12.07;4.45;;;;;;;;;;4978574;28;20038;-81
2023/09/07 07:39:42;;;;;;;12.38;4.97;;;;;;;;;;4979415;28;20027;-81
2023/09/07 07:42:08;;;;;;;6.80;4.63;;;;;;;;;;4979574;28;20022;-81
2023/09/07 07:44:34;;;;;;;9.68;4.80;;;;;;;;;;4979499;28;20034;-81
2023/09/07 07:47:00;;;;;;;10.13;4.80;;;;;;;;;;4979443;28;20029;-81
2023/09/07 07:49:27;;;;;;;10.50;4.50;;;;;;;;;;4979158;28;20035;-81
2023/09/07 07:51:55;;;;;;;8.85;4.97;;;;;;;;;;4979299;28;20105;-81
2023/09/07 07:54:22;;;;;;;8.40;4.70;;;;;;;;;;4979118;28;20051;-81
2023/09/07 07:56:51;;;;;;;11.13;4.35;;;;;;;;;;4978130;28;20508;-81
2023/09/07 07:59:17;;;;;;;10.68;4.72;;;;;;;;;;4979271;28;20434;-80
2023/09/07 08:01:44;;;;;;;9.23;4.70;;;;;;;;;;4978976;28;20418;-81
2023/09/07 08:04:11;;;;;;;9.05;5.15;;;;;;;;;;4979007;28;20384;-80
2023/09/07 08:06:37;;;;;;;10.45;4.55;;;;;;;;;;4979117;28;20057;-80
2023/09/07 08:09:03;;;;;;;8.95;4.55;;;;;;;;;;4979047;28;20034;-81
2023/09/07 08:11:29;;;;;;;8.30;4.30;;;;;;;;;;4977797;28;20036;-80
2023/09/07 08:13:55;;;;;;;7.30;4.07;;;;;;;;;;4978776;28;20023;-81
2023/09/07 08:16:21;;;;;;;11.73;4.30;;;;;;;;;;4978993;28;20114;-81
2023/09/07 08:18:47;;;;;;;10.57;4.47;;;;;;;;;;4978784;28;20023;-80
2023/09/07 08:21:15;;;;;;;8.10;3.55;;;;;;;;;;4978811;28;20037;-81
2023/09/07 08:23:41;;;;;;;13.05;3.60;;;;;;;;;;4978810;28;20494;-81
2023/09/07 08:26:09;;;;;;;10.38;4.30;;;;;;;;;;4977561;28;20554;-81
2023/09/07 08:28:35;;;;;;;8.38;4.05;;;;;;;;;;4978602;28;20419;-81
2023/09/07 08:31:04;;;;;;;7.18;3.83;;;;;;;;;;4978060;28;20360;-81
2023/09/07 08:33:33;;;;;;;12.63;3.85;;;;;;;;;;4978579;28;20030;-81
2023/09/07 08:36:00;;;;;;;14.52;4.18;;;;;;;;;;4978584;28;20030;-81
2023/09/07 08:38:27;;;;;;;7.63;3.90;;;;;;;;;;4978424;28;20056;-80
2023/09/07 08:41:00;;;;;;;7.43;3.75;;;;;;;;;;4977255;28;20039;-81
2023/09/07 08:43:29;;;;;;;9.70;3.90;;;;;;;;;;4972347;28;20019;-81
2023/09/07 08:45:59;;;;;;;7.38;3.75;;;;;;;;;;4959100;28;20027;-80
2023/09/07 08:48:26;;;;;;;5.70;3.47;;;;;;;;;;4964252;28;20022;-81
2023/09/07 08:50:52;;;;;;;7.72;3.80;;;;;;;;;;4972519;28;20476;-80
2023/09/07 08:53:22;;;;;;;7.03;4.07;;;;;;;;;;4976850;28;20098;-81
2023/09/07 08:55:48;;;;;;;6.55;3.65;;;;;;;;;;4966249;28;20057;-80
2023/09/07 08:58:14;;;;;;;10.35;3.75;;;;;;;;;;4971295;28;20035;-81
2023/09/07 09:00:42;;;;;;;6.88;3.83;;;;;;;;;;4968947;28;20123;-81
2023/09/07 09:03:09;;;;;;;16.67;4.47;;;;;;;;;;4976404;28;20065;-81
2023/09/07 09:05:35;;;;;;;6.88;3.30;;;;;;;;;;4978162;28;20029;-81
2023/09/07 09:08:02;;;;;;;9.10;3.65;;;;;;;;;;4970746;28;20035;-81
2023/09/07 09:10:28;;;;;;;9.00;3.65;;;;;;;;;;4968372;28;20443;-81
2023/09/07 09:12:54;;;;;;;7.72;3.60;;;;;;;;;;4967777;28;20157;-81
2023/09/07 09:15:22;;;;;;;12.38;3.58;;;;;;;;;;4960826;28;20359;-81
2023/09/07 09:17:48;;;;;;;6.35;3.30;;;;;;;;;;4958951;28;20027;-81
2023/09/07 09:20:24;;;;;;;6.20;3.70;;;;;;;;;;4958524;28;20034;-81
2023/09/07 09:22:51;;;;;;;7.20;3.50;;;;;;;;;;4957609;29;20031;-81
2023/09/07 09:25:17;;;;;;;9.52;3.80;;;;;;;;;;4958691;29;20027;-81
2023/09/07 09:27:43;;;;;;;9.10;3.55;;;;;;;;;;4958893;29;20027;-81
2023/09/07 09:30:09;;;;;;;7.45;3.85;;;;;;;;;;4961256;28;20027;-82
2023/09/07 09:32:35;;;;;;;11.02;3.90;;;;;;;;;;4970488;28;20083;-87
2023/09/07 09:35:02;;;;;;;7.32;3.72;;;;;;;;;;4959112;28;20039;-74
2023/09/07 09:37:29;;;;;;;11.50;4.40;;;;;;;;;;4958473;28;20050;-75
2023/09/07 09:39:56;;;;;;;6.55;2.83;;;;;;;;;;4958720;28;20027;-75
2023/09/07 09:42:22;;;;;;;8.18;3.17;;;;;;;;;;4959954;28;20028;-75
2023/09/07 09:44:50;;;;;;;10.57;3.70;;;;;;;;;;4959379;28;20085;-74
2023/09/07 09:47:16;;;;;;;8.38;3.38;;;;;;;;;;4956087;28;20035;-75
2023/09/07 09:49:42;;;;;;;5.05;3.10;;;;;;;;;;4958408;28;20071;-75
2023/09/07 09:52:08;;;;;;;9.10;3.20;;;;;;;;;;4964037;28;20035;-74
2023/09/07 09:54:36;;;;;;;8.90;3.83;;;;;;;;;;4959707;28;20055;-74
2023/09/07 09:57:02;;;;;;;6.65;3.60;;;;;;;;;;4959638;28;20039;-74
2023/09/07 09:59:28;;;;;;;7.65;3.38;;;;;;;;;;4958341;28;20035;-75
2023/09/07 10:01:55;;;;;;;6.95;3.50;;;;;;;;;;4960621;28;20023;-75
2023/09/07 10:04:22;;;;;;;8.05;3.33;;;;;;;;;;4956492;28;20035;-75
2023/09/07 10:06:56;;;;;;;9.07;3.33;;;;;;;;;;4960391;28;20417;-75
2023/09/07 10:09:22;;;;;;;6.90;3.13;;;;;;;;;;4949402;29;20082;-75
2023/09/07 10:11:54;;;;;;;6.50;3.22;;;;;;;;;;4970003;28;20094;-75
2023/09/07 10:14:20;;;;;;;5.53;3.45;;;;;;;;;;4963404;28;20417;-75
2023/09/07 10:16:59;;;;;;;11.02;3.78;;;;;;;;;;4963465;28;20082;-76
2023/09/07 10:19:26;;;;;;;7.53;3.15;;;;;;;;;;4964897;28;20047;-74
2023/09/07 10:21:56;;;;;;;6.70;3.03;;;;;;;;;;4961010;28;20489;-74
2023/09/07 10:24:26;;;;;;;9.88;3.92;;;;;;;;;;4971646;28;20050;-75
2023/09/07 10:26:59;;;;;;;6.72;3.03;;;;;;;;;;4960261;28;20440;-75
2023/09/07 10:29:26;;;;;;;4.28;3.00;;;;;;;;;;4961243;28;20031;-75
2023/09/07 10:31:52;;;;;;;8.20;3.10;;;;;;;;;;4961923;28;20345;-76
2023/09/07 10:34:18;;;;;;;8.82;3.30;;;;;;;;;;4962776;28;20027;-75
2023/09/07 10:36:44;;;;;;;7.65;3.50;;;;;;;;;;4971722;28;20353;-74
2023/09/07 10:39:12;;;;;;;4.93;3.15;;;;;;;;;;4978738;28;20377;-75
2023/09/07 10:41:45;;;;;;;5.70;3.22;;;;;;;;;;4966727;28;20031;-75
2023/09/07 10:44:12;;;;;;;6.32;3.65;;;;;;;;;;4960374;28;20027;-74
2023/09/07 10:46:41;;;;;;;6.30;3.65;;;;;;;;;;4958708;29;20047;-75
2023/09/07 10:49:09;;;;;;;6.60;3.38;;;;;;;;;;4974089;28;20031;-74
2023/09/07 10:51:40;;;;;;;13.18;4.45;;;;;;;;;;4978651;28;20038;-76
2023/09/07 10:54:06;;;;;;;;;;;;;;;;;;4969901;28;20541;-75
2023/09/07 10:56:32;;;;;;;5.40;3.50;;;;;;;;;;4969856;28;20009;-75
2023/09/07 10:58:59;;;;;;;6.70;3.95;;;;;;;;;;4971048;28;20031;-75
2023/09/07 11:01:25;;;;;;;8.55;3.88;;;;;;;;;;4974053;28;20049;-75
2023/09/07 11:03:51;;;;;;;7.53;4.18;;;;;;;;;;4959479;28;20035;-75
2023/09/07 11:06:19;;;;;;;5.60;3.60;;;;;;;;;;4963551;28;20054;-92
2023/09/07 11:08:46;;;;;;;5.53;3.70;;;;;;;;;;4962330;28;20354;-94
2023/09/07 11:11:12;;;;;;;4.82;3.40;;;;;;;;;;4961662;28;20046;-93
2023/09/07 11:13:39;;;;;;;5.95;3.90;;;;;;;;;;4964139;28;20047;-96
2023/09/07 11:16:10;;;;;;;5.25;3.22;;;;;;;;;;5091659;23;20058;-95
2023/09/07 11:18:40;;;;;;;6.82;3.50;;;;;;;;;;5008835;28;20073;-96
2023/09/07 11:21:09;;;;;;;6.10;3.45;;;;;;;;;;5003252;28;20117;-76
2023/09/07 11:23:38;;;;;;;4.43;3.70;;;;;;;;;;4980696;28;20022;-76
2023/09/07 11:26:16;;;;;;;5.00;3.72;;;;;;;;;;4979932;28;20054;-75
2023/09/07 11:28:45;;;;;;;27.15;5.25;;;;;;;;;;4997276;28;20046;-75
2023/09/07 11:31:11;;;;;;;17.05;4.25;;;;;;;;;;4998268;28;20018;-75
2023/09/07 11:33:38;;;;;;;14.95;4.70;;;;;;;;;;4998113;28;20030;-75
2023/09/07 11:36:04;;;;;;;17.98;4.18;;;;;;;;;;4998859;28;20025;-76
2023/09/07 11:38:35;;;;;;;7.68;3.67;;;;;;;;;;4998940;28;20030;-76
2023/09/07 11:41:01;;;;;;;6.28;4.22;;;;;;;;;;4998988;28;20046;-75
2023/09/07 11:43:27;;;;;;;10.55;3.60;;;;;;;;;;4998718;28;20019;-76
2023/09/07 11:45:54;;;;;;;7.35;3.88;;;;;;;;;;4998658;28;20117;-76
2023/09/07 11:48:20;;;;;;;7.18;3.80;;;;;;;;;;4998681;28;20026;-76
2023/09/07 11:50:46;;;;;;;6.40;3.70;;;;;;;;;;4998792;28;20113;-76
2023/09/07 11:53:12;;;;;;;8.80;3.63;;;;;;;;;;4979295;28;20303;-75
2023/09/07 11:55:39;;;;;;;6.63;3.75;;;;;;;;;;4979253;28;20031;-76
2023/09/07 11:58:05;;;;;;;9.18;4.30;;;;;;;;;;4978947;28;20504;-76
2023/09/07 12:00:31;;;;;;;6.15;3.92;;;;;;;;;;4979011;28;20026;-76
2023/09/07 12:02:58;;;;;;;7.15;3.90;;;;;;;;;;4979092;28;20349;-76
2023/09/07 12:05:24;;;;;;;8.18;4.10;;;;;;;;;;4979043;28;20027;-76
2023/09/07 12:07:50;;;;;;;8.80;4.03;;;;;;;;;;4979108;28;20318;-76
2023/09/07 12:10:16;;;;;;;12.25;4.00;;;;;;;;;;4978864;28;20034;-76
2023/09/07 12:12:43;;;;;;;8.55;4.10;;;;;;;;;;4979028;28;20038;-76
2023/09/07 12:15:11;;;;;;;12.77;3.83;;;;;;;;;;4978908;28;20031;-76
2023/09/07 12:17:37;;;;;;;6.57;3.75;;;;;;;;;;4978705;28;20043;-76
2023/09/07 12:20:05;;;;;;;7.30;3.53;;;;;;;;;;4978667;28;20066;-75
2023/09/07 12:22:34;;;;;;;5.88;3.67;;;;;;;;;;4977723;28;20023;-76
2023/09/07 12:25:00;;;;;;;6.75;3.78;;;;;;;;;;4978760;28;20073;-76
2023/09/07 12:27:26;;;;;;;7.68;4.00;;;;;;;;;;4977449;28;20035;-76
2023/09/07 12:29:52;;;;;;;7.88;3.70;;;;;;;;;;4978648;28;20417;-76
2023/09/07 12:32:18;;;;;;;4.78;3.78;;;;;;;;;;4978468;28;20034;-76
2023/09/07 12:34:44;;;;;;;6.47;3.78;;;;;;;;;;4977158;28;20452;-76
2023/09/07 12:37:10;;;;;;;7.75;3.80;;;;;;;;;;4977796;28;20122;-76
2023/09/07 12:39:36;;;;;;;9.82;3.85;;;;;;;;;;4978583;28;20063;-76
2023/09/07 12:42:03;;;;;;;9.35;3.72;;;;;;;;;;4978436;28;20030;-76
2023/09/07 12:44:29;;;;;;;8.82;3.90;;;;;;;;;;4978449;28;20018;-76
2023/09/07 12:46:55;;;;;;;7.57;3.60;;;;;;;;;;4978470;28;20034;-75
2023/09/07 12:49:24;;;;;;;8.02;4.05;;;;;;;;;;4978384;28;20321;-76
2023/09/07 12:51:50;;;;;;;7.75;4.22;;;;;;;;;;4978290;28;20055;-76
2023/09/07 12:54:16;;;;;;;6.95;3.65;;;;;;;;;;4978352;28;20073;-75
2023/09/07 12:56:45;;;;;;;5.78;3.63;;;;;;;;;;4977385;28;20305;-76
2023/09/07 12:59:11;;;;;;;5.80;3.55;;;;;;;;;;4968602;28;20098;-75
2023/09/07 13:01:37;;;;;;;9.07;3.97;;;;;;;;;;4971654;28;20029;-76
2023/09/07 13:04:03;;;;;;;6.72;3.70;;;;;;;;;;4982061;28;20034;-76
2023/09/07 13:06:32;;;;;;;7.97;3.75;;;;;;;;;;4976438;28;20302;-76
2023/09/07 13:09:00;;;;;;;4.90;3.65;;;;;;;;;;4973246;28;20060;-76
2023/09/07 13:11:26;;;;;;;7.88;3.72;;;;;;;;;;4971919;28;20060;-76
2023/09/07 13:13:52;;;;;;;7.43;3.45;;;;;;;;;;4977786;28;20412;-76
2023/09/07 13:16:20;;;;;;;7.70;3.60;;;;;;;;;;4975019;28;20082;-77
2023/09/07 13:18:47;;;;;;;7.72;3.83;;;;;;;;;;4975296;28;20056;-77
2023/09/07 13:21:13;;;;;;;13.93;3.38;;;;;;;;;;4971794;28;20035;-77
2023/09/07 13:23:41;;;;;;;12.50;3.60;;;;;;;;;;4971418;28;20027;-76
2023/09/07 13:26:11;;;;;;;6.82;3.53;;;;;;;;;;4977209;28;20319;-77
2023/09/07 13:28:37;;;;;;;6.28;3.25;;;;;;;;;;4959056;28;20027;-77
2023/09/07 13:31:03;;;;;;;12.38;3.70;;;;;;;;;;4966498;28;20046;-91
2023/09/07 13:33:31;;;;;;;6.38;3.58;;;;;;;;;;4974054;28;20031;-90
2023/09/07 13:35:57;;;;;;;8.38;3.53;;;;;;;;;;4978403;28;20035;-92
2023/09/07 13:38:23;;;;;;;9.30;3.35;;;;;;;;;;4977624;28;20031;-90
2023/09/07 13:40:49;;;;;;;4.82;3.42;;;;;;;;;;4978251;28;20297;-91
2023/09/07 13:43:15;;;;;;;7.38;3.70;;;;;;;;;;4978626;28;20034;-91
2023/09/07 13:45:41;;;;;;;6.45;3.60;;;;;;;;;;4977399;28;20019;-92
2023/09/07 13:51:48;;;;;;;5.68;3.67;;;;;;;;;;4982274;28;20503;-89
2023/09/07 13:54:14;;;;;;;9.40;3.75;;;;;;;;;;4981888;28;20043;-90
2023/09/07 13:56:42;;;;;;;9.15;3.45;;;;;;;;;;4981608;28;20023;-90
2023/09/07 13:59:08;;;;;;;7.72;3.90;;;;;;;;;;4980091;28;20034;-88
2023/09/07 14:01:34;;;;;;;6.07;3.78;;;;;;;;;;4981949;28;20291;-87
2023/09/07 14:04:00;;;;;;;8.32;3.53;;;;;;;;;;4982232;28;20350;-89
2023/09/07 14:06:26;;;;;;;7.22;3.90;;;;;;;;;;4980691;28;20425;-87
2023/09/07 14:08:53;;;;;;;7.53;3.65;;;;;;;;;;4980827;28;20030;-88
2023/09/07 14:11:19;;;;;;;8.82;3.42;;;;;;;;;;4981066;28;20086;-88
2023/09/07 14:13:46;;;;;;;6.50;3.70;;;;;;;;;;4980332;28;20409;-87
2023/09/07 14:16:13;;;;;;;8.32;3.72;;;;;;;;;;4981553;28;20027;-87
2023/09/07 14:18:39;;;;;;;8.50;3.65;;;;;;;;;;4968072;28;20151;-87
2023/09/07 14:21:05;;;;;;;9.77;3.80;;;;;;;;;;4967883;28;20062;-87
2023/09/07 14:23:31;;;;;;;4.85;3.63;;;;;;;;;;4981751;28;20034;-87
2023/09/07 14:25:58;;;;;;;6.78;3.50;;;;;;;;;;4974151;28;20027;-88
2023/09/07 14:28:24;;;;;;;11.73;3.22;;;;;;;;;;4972665;28;20035;-89
2023/09/07 14:30:53;;;;;;;8.27;3.72;;;;;;;;;;4981181;28;20027;-88
2023/09/07 14:33:19;;;;;;;3.70;3.30;;;;;;;;;;4981447;28;20029;-88
2023/09/07 14:35:46;;;;;;;4.03;3.30;;;;;;;;;;4980170;28;20034;-88
2023/09/07 14:38:12;;;;;;;12.52;8.02;;;;;;;;;;4981457;28;20425;-89
2023/09/07 14:40:39;;;;;;;7.68;5.63;;;;;;;;;;4971977;28;20027;-87
2023/09/07 14:43:05;;;;;;;4.70;3.75;;;;;;;;;;4974323;28;20058;-88
2023/09/07 14:45:31;;;;;;;8.43;3.40;;;;;;;;;;4961874;28;20023;-88
2023/09/07 14:47:58;;;;;;;9.52;5.10;;;;;;;;;;4962002;28;20087;-88
2023/09/07 14:50:24;;;;;;;6.70;4.20;;;;;;;;;;4961995;28;20322;-88
2023/09/07 14:52:50;;;;;;;6.60;3.80;;;;;;;;;;4960468;29;20069;-88
2023/09/07 14:55:16;;;;;;;6.82;3.65;;;;;;;;;;4961896;28;20038;-89
2023/09/07 14:57:42;;;;;;;6.22;3.83;;;;;;;;;;4960727;29;20063;-88
2023/09/07 15:00:09;;;;;;;12.73;7.70;;;;;;;;;;4973682;28;20035;-88
2023/09/07 15:02:36;;;;;;;18.58;9.75;;;;;;;;;;4960488;28;20024;-88
2023/09/07 15:08:06;;;;;;;8.70;5.28;;;;;;;;;;4969774;28;20061;-89
2023/09/07 15:10:36;;;;;;;4.63;3.88;;;;;;;;;;4978225;28;20133;-88
2023/09/07 15:13:02;;;;;;;8.13;4.45;;;;;;;;;;4979723;28;20030;-88
2023/09/07 15:15:31;;;;;;;5.38;4.28;;;;;;;;;;4992254;28;20121;-90